sensor_id;sensor_type;location;lat;lon;timestamp;temperature;humidity
7738;DHT22;29398;45.328;5.558;2024-01-15T00:00:01;4.60;99.90
7738;DHT22;29398;45.328;5.558;2024-01-15T00:01:11;4.60;99.90
7738;DHT22;29398;45.328;5.558;2024-01-15T00:02:13;4.60;99.90
7738;DHT22;29398;45.328;5.558;2024-01-15T00:03:14;4.60;99.90
7738;DHT22;29398;45.328;5.558;2024-01-15T00:04:16;4.60;99.90
7738;DHT22;29398;45.328;5.558;2024-01-15T00:05:17;4.60;99.90
7738;DHT22;29398;45.328;5.558;2024-01-15T00:06:21;4.60;99.90
7738;DHT22;29398;45.328;5.558;2024-01-15T00:07:22;4.60;99.90
7738;DHT22;29398;45.328;5.558;2024-01-15T00:08:24;4.60;99.90
7738;DHT22;29398;45.328;5.558;2024-01-15T00:09:25;4.60;99.90
7738;DHT22;29398;45.328;5.558;2024-01-15T00:10:28;4.60;99.90
7738;DHT22;29398;45.328;5.558;2024-01-15T00:11:29;4.70;99.90
7738;DHT22;29398;45.328;5.558;2024-01-15T00:12:31;4.70;99.90
7738;DHT22;29398;45.328;5.558;2024-01-15T00:13:32;4.70;99.90
7738;DHT22;29398;45.328;5.558;2024-01-15T00:14:34;4.70;99.90
7738;DHT22;29398;45.328;5.558;2024-01-15T00:15:35;4.70;99.90
7738;DHT22;29398;45.328;5.558;2024-01-15T00:16:39;4.70;99.90
7738;DHT22;29398;45.328;5.558;2024-01-15T00:17:41;4.70;99.90
7738;DHT22;29398;45.328;5.558;2024-01-15T00:18:43;4.70;99.90
7738;DHT22;29398;45.328;5.558;2024-01-15T00:19:44;4.60;99.90
7738;DHT22;29398;45.328;5.558;2024-01-15T00:20:45;4.60;99.90
7738;DHT22;29398;45.328;5.558;2024-01-15T00:21:48;4.60;99.90
7738;DHT22;29398;45.328;5.558;2024-01-15T00:22:49;4.60;99.90
7738;DHT22;29398;45.328;5.558;2024-01-15T00:23:51;4.70;99.90
7738;DHT22;29398;45.328;5.558;2024-01-15T00:24:52;4.70;99.90
7738;DHT22;29398;45.328;5.558;2024-01-15T00:25:54;4.70;99.90
7738;DHT22;29398;45.328;5.558;2024-01-15T00:26:56;4.70;99.90
7738;DHT22;29398;45.328;5.558;2024-01-15T00:27:58;4.70;99.90
7738;DHT22;29398;45.328;5.558;2024-01-15T00:28:59;4.70;99.90
7738;DHT22;29398;45.328;5.558;2024-01-15T00:30:01;4.70;99.90
7738;DHT22;29398;45.328;5.558;2024-01-15T00:31:02;4.80;99.90
7738;DHT22;29398;45.328;5.558;2024-01-15T00:32:05;4.80;99.90
7738;DHT22;29398;45.328;5.558;2024-01-15T00:33:06;4.80;99.90
7738;DHT22;29398;45.328;5.558;2024-01-15T00:34:08;4.80;99.90
7738;DHT22;29398;45.328;5.558;2024-01-15T00:35:09;4.70;99.90
7738;DHT22;29398;45.328;5.558;2024-01-15T00:36:11;4.80;99.90
7738;DHT22;29398;45.328;5.558;2024-01-15T00:37:14;4.80;99.90
7738;DHT22;29398;45.328;5.558;2024-01-15T00:38:16;4.80;99.90
7738;DHT22;29398;45.328;5.558;2024-01-15T00:39:17;4.70;99.90
7738;DHT22;29398;45.328;5.558;2024-01-15T00:40:19;4.70;99.90
7738;DHT22;29398;45.328;5.558;2024-01-15T00:41:21;4.70;99.90
7738;DHT22;29398;45.328;5.558;2024-01-15T00:42:22;4.70;99.90
7738;DHT22;29398;45.328;5.558;2024-01-15T00:43:24;4.70;99.90
7738;DHT22;29398;45.328;5.558;2024-01-15T00:44:25;4.70;99.90
7738;DHT22;29398;45.328;5.558;2024-01-15T00:45:27;4.70;99.90
7738;DHT22;29398;45.328;5.558;2024-01-15T00:46:28;4.70;99.90
7738;DHT22;29398;45.328;5.558;2024-01-15T00:47:29;4.70;99.90
7738;DHT22;29398;45.328;5.558;2024-01-15T00:48:32;4.70;99.90
7738;DHT22;29398;45.328;5.558;2024-01-15T00:49:34;4.70;99.90
7738;DHT22;29398;45.328;5.558;2024-01-15T00:50:36;4.70;99.90
7738;DHT22;29398;45.328;5.558;2024-01-15T00:51:37;4.70;99.90
7738;DHT22;29398;45.328;5.558;2024-01-15T00:52:40;4.70;99.90
7738;DHT22;29398;45.328;5.558;2024-01-15T00:53:42;4.70;99.90
7738;DHT22;29398;45.328;5.558;2024-01-15T00:54:43;4.80;99.90
7738;DHT22;29398;45.328;5.558;2024-01-15T00:55:45;4.70;99.90
7738;DHT22;29398;45.328;5.558;2024-01-15T00:56:46;4.80;99.90
7738;DHT22;29398;45.328;5.558;2024-01-15T00:57:48;4.80;99.90
7738;DHT22;29398;45.328;5.558;2024-01-15T00:58:49;4.80;99.90
7738;DHT22;29398;45.328;5.558;2024-01-15T00:59:51;4.80;99.90
7738;DHT22;29398;45.328;5.558;2024-01-15T01:00:52;4.80;99.90
7738;DHT22;29398;45.328;5.558;2024-01-15T01:01:54;4.80;99.90
7738;DHT22;29398;45.328;5.558;2024-01-15T01:02:56;4.80;99.90
7738;DHT22;29398;45.328;5.558;2024-01-15T01:03:58;4.80;99.90
7738;DHT22;29398;45.328;5.558;2024-01-15T01:04:59;4.80;99.90
7738;DHT22;29398;45.328;5.558;2024-01-15T01:06:00;4.80;99.90
7738;DHT22;29398;45.328;5.558;2024-01-15T01:07:02;4.80;99.90
7738;DHT22;29398;45.328;5.558;2024-01-15T01:08:05;4.80;99.90
7738;DHT22;29398;45.328;5.558;2024-01-15T01:09:07;4.80;99.90
7738;DHT22;29398;45.328;5.558;2024-01-15T01:10:08;4.80;99.90
7738;DHT22;29398;45.328;5.558;2024-01-15T01:11:13;4.80;99.90
7738;DHT22;29398;45.328;5.558;2024-01-15T01:12:14;4.80;99.90
7738;DHT22;29398;45.328;5.558;2024-01-15T01:13:15;4.80;99.90
7738;DHT22;29398;45.328;5.558;2024-01-15T01:14:17;4.90;99.90
7738;DHT22;29398;45.328;5.558;2024-01-15T01:15:18;4.90;99.90
7738;DHT22;29398;45.328;5.558;2024-01-15T01:16:20;4.90;99.90
7738;DHT22;29398;45.328;5.558;2024-01-15T01:17:21;4.90;99.90
7738;DHT22;29398;45.328;5.558;2024-01-15T01:18:24;4.90;99.90
7738;DHT22;29398;45.328;5.558;2024-01-15T01:19:25;4.80;99.90
7738;DHT22;29398;45.328;5.558;2024-01-15T01:20:27;4.90;99.90
7738;DHT22;29398;45.328;5.558;2024-01-15T01:21:28;4.80;99.90
7738;DHT22;29398;45.328;5.558;2024-01-15T01:22:30;4.90;99.90
7738;DHT22;29398;45.328;5.558;2024-01-15T01:23:33;4.80;99.90
7738;DHT22;29398;45.328;5.558;2024-01-15T01:24:35;4.80;99.90
7738;DHT22;29398;45.328;5.558;2024-01-15T01:25:36;4.80;99.90
7738;DHT22;29398;45.328;5.558;2024-01-15T01:26:38;4.90;99.90
7738;DHT22;29398;45.328;5.558;2024-01-15T01:27:39;4.90;99.90
7738;DHT22;29398;45.328;5.558;2024-01-15T01:28:41;4.90;99.90
7738;DHT22;29398;45.328;5.558;2024-01-15T01:29:42;4.90;99.90
7738;DHT22;29398;45.328;5.558;2024-01-15T01:30:44;4.90;99.90
7738;DHT22;29398;45.328;5.558;2024-01-15T01:31:46;4.90;99.90
7738;DHT22;29398;45.328;5.558;2024-01-15T01:32:48;4.90;99.90
7738;DHT22;29398;45.328;5.558;2024-01-15T01:33:49;4.90;99.90
7738;DHT22;29398;45.328;5.558;2024-01-15T01:34:50;4.90;99.90
7738;DHT22;29398;45.328;5.558;2024-01-15T01:35:52;5.00;99.90
7738;DHT22;29398;45.328;5.558;2024-01-15T01:36:54;4.90;99.90
7738;DHT22;29398;45.328;5.558;2024-01-15T01:37:56;4.90;99.90
7738;DHT22;29398;45.328;5.558;2024-01-15T01:38:58;4.90;99.90
7738;DHT22;29398;45.328;5.558;2024-01-15T01:40:00;4.90;99.90
7738;DHT22;29398;45.328;5.558;2024-01-15T01:41:01;4.90;99.90
7738;DHT22;29398;45.328;5.558;2024-01-15T01:42:04;4.90;99.90
7738;DHT22;29398;45.328;5.558;2024-01-15T01:43:05;4.90;99.90
7738;DHT22;29398;45.328;5.558;2024-01-15T01:44:07;4.90;99.90
7738;DHT22;29398;45.328;5.558;2024-01-15T01:45:09;4.90;99.90
7738;DHT22;29398;45.328;5.558;2024-01-15T01:46:11;5.00;99.90
7738;DHT22;29398;45.328;5.558;2024-01-15T01:47:13;5.00;99.90
7738;DHT22;29398;45.328;5.558;2024-01-15T01:48:15;5.00;99.90
7738;DHT22;29398;45.328;5.558;2024-01-15T01:49:17;5.00;99.90
7738;DHT22;29398;45.328;5.558;2024-01-15T01:50:18;5.00;99.90
7738;DHT22;29398;45.328;5.558;2024-01-15T01:51:22;5.00;99.90
7738;DHT22;29398;45.328;5.558;2024-01-15T01:52:24;5.00;99.90
7738;DHT22;29398;45.328;5.558;2024-01-15T01:53:26;5.00;99.90
7738;DHT22;29398;45.328;5.558;2024-01-15T01:54:31;5.00;99.90
7738;DHT22;29398;45.328;5.558;2024-01-15T01:55:35;5.00;99.90
7738;DHT22;29398;45.328;5.558;2024-01-15T01:56:37;5.00;99.90
7738;DHT22;29398;45.328;5.558;2024-01-15T01:57:39;5.00;99.90
7738;DHT22;29398;45.328;5.558;2024-01-15T01:58:41;5.00;99.90
7738;DHT22;29398;45.328;5.558;2024-01-15T01:59:44;5.00;99.90
7738;DHT22;29398;45.328;5.558;2024-01-15T02:00:47;5.00;99.90
7738;DHT22;29398;45.328;5.558;2024-01-15T02:01:50;5.00;99.90
7738;DHT22;29398;45.328;5.558;2024-01-15T02:02:51;5.10;99.90
7738;DHT22;29398;45.328;5.558;2024-01-15T02:03:53;5.00;99.90
7738;DHT22;29398;45.328;5.558;2024-01-15T02:04:57;5.00;99.90
7738;DHT22;29398;45.328;5.558;2024-01-15T02:05:59;5.10;99.90
7738;DHT22;29398;45.328;5.558;2024-01-15T02:07:01;5.00;99.90
7738;DHT22;29398;45.328;5.558;2024-01-15T02:08:03;5.10;99.90
7738;DHT22;29398;45.328;5.558;2024-01-15T02:09:05;5.10;99.90
7738;DHT22;29398;45.328;5.558;2024-01-15T02:10:08;5.10;99.90
7738;DHT22;29398;45.328;5.558;2024-01-15T02:11:10;5.10;99.90
7738;DHT22;29398;45.328;5.558;2024-01-15T02:12:11;5.10;99.90
7738;DHT22;29398;45.328;5.558;2024-01-15T02:13:14;5.10;99.90
7738;DHT22;29398;45.328;5.558;2024-01-15T02:14:15;5.10;99.90
7738;DHT22;29398;45.328;5.558;2024-01-15T02:15:16;5.10;99.90
7738;DHT22;29398;45.328;5.558;2024-01-15T02:16:18;5.10;99.90
7738;DHT22;29398;45.328;5.558;2024-01-15T02:17:19;5.10;99.90
7738;DHT22;29398;45.328;5.558;2024-01-15T02:18:21;5.10;99.90
7738;DHT22;29398;45.328;5.558;2024-01-15T02:19:22;5.10;99.90
7738;DHT22;29398;45.328;5.558;2024-01-15T02:20:25;5.10;99.90
7738;DHT22;29398;45.328;5.558;2024-01-15T02:21:26;5.10;99.90
7738;DHT22;29398;45.328;5.558;2024-01-15T02:22:29;5.10;99.90
7738;DHT22;29398;45.328;5.558;2024-01-15T02:23:31;5.10;99.90
7738;DHT22;29398;45.328;5.558;2024-01-15T02:24:34;5.10;99.90
7738;DHT22;29398;45.328;5.558;2024-01-15T02:25:35;5.10;99.90
7738;DHT22;29398;45.328;5.558;2024-01-15T02:26:38;5.10;99.90
7738;DHT22;29398;45.328;5.558;2024-01-15T02:27:39;5.10;99.90
7738;DHT22;29398;45.328;5.558;2024-01-15T02:28:42;5.10;99.90
7738;DHT22;29398;45.328;5.558;2024-01-15T02:29:45;5.10;99.90
7738;DHT22;29398;45.328;5.558;2024-01-15T02:30:47;5.10;99.90
7738;DHT22;29398;45.328;5.558;2024-01-15T02:31:48;5.10;99.90
7738;DHT22;29398;45.328;5.558;2024-01-15T02:32:50;5.00;99.90
7738;DHT22;29398;45.328;5.558;2024-01-15T02:33:52;5.10;99.90
7738;DHT22;29398;45.328;5.558;2024-01-15T02:34:54;5.10;99.90
7738;DHT22;29398;45.328;5.558;2024-01-15T02:35:56;5.00;99.90
7738;DHT22;29398;45.328;5.558;2024-01-15T02:36:58;5.00;99.90
7738;DHT22;29398;45.328;5.558;2024-01-15T02:37:59;5.00;99.90
7738;DHT22;29398;45.328;5.558;2024-01-15T02:39:03;5.00;99.90
7738;DHT22;29398;45.328;5.558;2024-01-15T02:40:05;5.00;99.90
7738;DHT22;29398;45.328;5.558;2024-01-15T02:41:07;5.00;99.90
7738;DHT22;29398;45.328;5.558;2024-01-15T02:42:08;5.00;99.90
7738;DHT22;29398;45.328;5.558;2024-01-15T02:43:09;5.00;99.90
7738;DHT22;29398;45.328;5.558;2024-01-15T02:44:11;4.90;99.90
7738;DHT22;29398;45.328;5.558;2024-01-15T02:45:12;4.90;99.90
7738;DHT22;29398;45.328;5.558;2024-01-15T02:46:14;4.90;99.90
7738;DHT22;29398;45.328;5.558;2024-01-15T02:47:17;4.90;99.90
7738;DHT22;29398;45.328;5.558;2024-01-15T02:48:19;4.90;99.90
7738;DHT22;29398;45.328;5.558;2024-01-15T02:49:20;4.90;99.90
7738;DHT22;29398;45.328;5.558;2024-01-15T02:50:21;4.90;99.90
7738;DHT22;29398;45.328;5.558;2024-01-15T02:51:23;4.90;99.90
7738;DHT22;29398;45.328;5.558;2024-01-15T02:52:24;4.90;99.90
7738;DHT22;29398;45.328;5.558;2024-01-15T02:53:26;4.90;99.90
7738;DHT22;29398;45.328;5.558;2024-01-15T02:54:29;4.90;99.90
7738;DHT22;29398;45.328;5.558;2024-01-15T02:55:30;4.90;99.90
7738;DHT22;29398;45.328;5.558;2024-01-15T02:56:32;5.00;99.90
7738;DHT22;29398;45.328;5.558;2024-01-15T02:57:33;5.00;99.90
7738;DHT22;29398;45.328;5.558;2024-01-15T02:58:34;5.00;99.90
7738;DHT22;29398;45.328;5.558;2024-01-15T02:59:36;5.00;99.90
7738;DHT22;29398;45.328;5.558;2024-01-15T03:00:37;5.00;99.90
7738;DHT22;29398;45.328;5.558;2024-01-15T03:01:39;5.00;99.90
7738;DHT22;29398;45.328;5.558;2024-01-15T03:02:40;5.00;99.90
7738;DHT22;29398;45.328;5.558;2024-01-15T03:03:44;5.00;99.90
7738;DHT22;29398;45.328;5.558;2024-01-15T03:04:46;5.00;99.90
7738;DHT22;29398;45.328;5.558;2024-01-15T03:05:47;4.90;99.90
7738;DHT22;29398;45.328;5.558;2024-01-15T03:06:49;5.00;99.90
7738;DHT22;29398;45.328;5.558;2024-01-15T03:07:50;5.00;99.90
7738;DHT22;29398;45.328;5.558;2024-01-15T03:08:51;5.00;99.90
7738;DHT22;29398;45.328;5.558;2024-01-15T03:09:55;4.90;99.90
7738;DHT22;29398;45.328;5.558;2024-01-15T03:10:56;4.90;99.90
7738;DHT22;29398;45.328;5.558;2024-01-15T03:11:58;4.90;99.90
7738;DHT22;29398;45.328;5.558;2024-01-15T03:12:59;4.90;99.90
7738;DHT22;29398;45.328;5.558;2024-01-15T03:14:01;4.90;99.90
7738;DHT22;29398;45.328;5.558;2024-01-15T03:15:02;4.90;99.90
7738;DHT22;29398;45.328;5.558;2024-01-15T03:16:05;4.90;99.90
7738;DHT22;29398;45.328;5.558;2024-01-15T03:17:06;4.90;99.90
7738;DHT22;29398;45.328;5.558;2024-01-15T03:18:09;4.90;99.90
7738;DHT22;29398;45.328;5.558;2024-01-15T03:19:11;5.00;99.90
7738;DHT22;29398;45.328;5.558;2024-01-15T03:20:13;5.00;99.90
7738;DHT22;29398;45.328;5.558;2024-01-15T03:21:14;5.00;99.90
7738;DHT22;29398;45.328;5.558;2024-01-15T03:22:16;5.00;99.90
7738;DHT22;29398;45.328;5.558;2024-01-15T03:23:17;5.00;99.90
7738;DHT22;29398;45.328;5.558;2024-01-15T03:24:19;4.90;99.90
7738;DHT22;29398;45.328;5.558;2024-01-15T03:25:21;4.90;99.90
7738;DHT22;29398;45.328;5.558;2024-01-15T03:26:22;4.90;99.90
7738;DHT22;29398;45.328;5.558;2024-01-15T03:27:24;4.90;99.90
7738;DHT22;29398;45.328;5.558;2024-01-15T03:28:26;4.80;99.90
7738;DHT22;29398;45.328;5.558;2024-01-15T03:29:31;4.90;99.90
7738;DHT22;29398;45.328;5.558;2024-01-15T03:30:32;4.80;99.90
7738;DHT22;29398;45.328;5.558;2024-01-15T03:31:34;4.80;99.90
7738;DHT22;29398;45.328;5.558;2024-01-15T03:32:35;4.80;99.90
7738;DHT22;29398;45.328;5.558;2024-01-15T03:33:37;4.80;99.90
7738;DHT22;29398;45.328;5.558;2024-01-15T03:34:38;4.80;99.90
7738;DHT22;29398;45.328;5.558;2024-01-15T03:35:40;4.80;99.90
7738;DHT22;29398;45.328;5.558;2024-01-15T03:36:41;4.80;99.90
7738;DHT22;29398;45.328;5.558;2024-01-15T03:37:43;4.80;99.90
7738;DHT22;29398;45.328;5.558;2024-01-15T03:38:44;4.80;99.90
7738;DHT22;29398;45.328;5.558;2024-01-15T03:39:45;4.80;99.90
7738;DHT22;29398;45.328;5.558;2024-01-15T03:40:49;4.80;99.90
7738;DHT22;29398;45.328;5.558;2024-01-15T03:41:50;4.80;99.90
7738;DHT22;29398;45.328;5.558;2024-01-15T03:42:53;4.80;99.90
7738;DHT22;29398;45.328;5.558;2024-01-15T03:43:55;4.80;99.90
7738;DHT22;29398;45.328;5.558;2024-01-15T03:44:57;4.80;99.90
7738;DHT22;29398;45.328;5.558;2024-01-15T03:45:58;4.80;99.90
7738;DHT22;29398;45.328;5.558;2024-01-15T03:47:00;4.80;99.90
7738;DHT22;29398;45.328;5.558;2024-01-15T03:48:01;4.80;99.90
7738;DHT22;29398;45.328;5.558;2024-01-15T03:49:03;4.90;99.90
7738;DHT22;29398;45.328;5.558;2024-01-15T03:50:05;4.80;99.90
7738;DHT22;29398;45.328;5.558;2024-01-15T03:51:07;4.90;99.90
7738;DHT22;29398;45.328;5.558;2024-01-15T03:52:08;4.90;99.90
7738;DHT22;29398;45.328;5.558;2024-01-15T03:53:09;4.90;99.90
7738;DHT22;29398;45.328;5.558;2024-01-15T03:54:11;4.90;99.90
7738;DHT22;29398;45.328;5.558;2024-01-15T03:55:12;4.90;99.90
7738;DHT22;29398;45.328;5.558;2024-01-15T03:56:16;4.90;99.90
7738;DHT22;29398;45.328;5.558;2024-01-15T03:57:17;4.90;99.90
7738;DHT22;29398;45.328;5.558;2024-01-15T03:58:19;4.90;99.90
7738;DHT22;29398;45.328;5.558;2024-01-15T03:59:21;4.90;99.90
7738;DHT22;29398;45.328;5.558;2024-01-15T04:00:23;4.90;99.90
7738;DHT22;29398;45.328;5.558;2024-01-15T04:01:24;4.90;99.90
7738;DHT22;29398;45.328;5.558;2024-01-15T04:02:26;4.90;99.90
7738;DHT22;29398;45.328;5.558;2024-01-15T04:03:27;4.90;99.90
7738;DHT22;29398;45.328;5.558;2024-01-15T04:04:29;4.90;99.90
7738;DHT22;29398;45.328;5.558;2024-01-15T04:05:30;4.90;99.90
7738;DHT22;29398;45.328;5.558;2024-01-15T04:06:32;4.90;99.90
7738;DHT22;29398;45.328;5.558;2024-01-15T04:07:33;4.90;99.90
7738;DHT22;29398;45.328;5.558;2024-01-15T04:08:35;4.90;99.90
7738;DHT22;29398;45.328;5.558;2024-01-15T04:09:36;4.80;99.90
7738;DHT22;29398;45.328;5.558;2024-01-15T04:10:38;4.80;99.90
7738;DHT22;29398;45.328;5.558;2024-01-15T04:11:41;4.80;99.90
7738;DHT22;29398;45.328;5.558;2024-01-15T04:12:43;4.90;99.90
7738;DHT22;29398;45.328;5.558;2024-01-15T04:13:44;4.80;99.90
7738;DHT22;29398;45.328;5.558;2024-01-15T04:14:46;4.80;99.90
7738;DHT22;29398;45.328;5.558;2024-01-15T04:15:47;4.80;99.90
7738;DHT22;29398;45.328;5.558;2024-01-15T04:16:49;4.80;99.90
7738;DHT22;29398;45.328;5.558;2024-01-15T04:17:50;4.80;99.90
7738;DHT22;29398;45.328;5.558;2024-01-15T04:18:52;4.80;99.90
7738;DHT22;29398;45.328;5.558;2024-01-15T04:19:53;4.80;99.90
7738;DHT22;29398;45.328;5.558;2024-01-15T04:20:55;4.80;99.90
7738;DHT22;29398;45.328;5.558;2024-01-15T04:21:56;4.80;99.90
7738;DHT22;29398;45.328;5.558;2024-01-15T04:22:59;4.80;99.90
7738;DHT22;29398;45.328;5.558;2024-01-15T04:24:00;4.80;99.90
7738;DHT22;29398;45.328;5.558;2024-01-15T04:25:02;4.80;99.90
7738;DHT22;29398;45.328;5.558;2024-01-15T04:26:04;4.80;99.90
7738;DHT22;29398;45.328;5.558;2024-01-15T04:27:07;4.80;99.90
7738;DHT22;29398;45.328;5.558;2024-01-15T04:28:08;4.70;99.90
7738;DHT22;29398;45.328;5.558;2024-01-15T04:29:11;4.80;99.90
7738;DHT22;29398;45.328;5.558;2024-01-15T04:30:12;4.70;99.90
7738;DHT22;29398;45.328;5.558;2024-01-15T04:31:21;4.70;99.90
7738;DHT22;29398;45.328;5.558;2024-01-15T04:32:22;4.70;99.90
7738;DHT22;29398;45.328;5.558;2024-01-15T04:33:24;4.70;99.90
7738;DHT22;29398;45.328;5.558;2024-01-15T04:34:25;4.70;99.90
7738;DHT22;29398;45.328;5.558;2024-01-15T04:35:27;4.70;99.90
7738;DHT22;29398;45.328;5.558;2024-01-15T04:36:28;4.70;99.90
7738;DHT22;29398;45.328;5.558;2024-01-15T04:37:30;4.70;99.90
7738;DHT22;29398;45.328;5.558;2024-01-15T04:38:31;4.70;99.90
7738;DHT22;29398;45.328;5.558;2024-01-15T04:39:34;4.70;99.90
7738;DHT22;29398;45.328;5.558;2024-01-15T04:40:35;4.70;99.90
7738;DHT22;29398;45.328;5.558;2024-01-15T04:41:37;4.70;99.90
7738;DHT22;29398;45.328;5.558;2024-01-15T04:42:40;4.80;99.90
7738;DHT22;29398;45.328;5.558;2024-01-15T04:43:41;4.70;99.90
7738;DHT22;29398;45.328;5.558;2024-01-15T04:44:43;4.70;99.90
7738;DHT22;29398;45.328;5.558;2024-01-15T04:45:44;4.70;99.90
7738;DHT22;29398;45.328;5.558;2024-01-15T04:46:46;4.80;99.90
7738;DHT22;29398;45.328;5.558;2024-01-15T04:47:47;4.80;99.90
7738;DHT22;29398;45.328;5.558;2024-01-15T04:48:49;4.70;99.90
7738;DHT22;29398;45.328;5.558;2024-01-15T04:49:51;4.70;99.90
7738;DHT22;29398;45.328;5.558;2024-01-15T04:50:53;4.70;99.90
7738;DHT22;29398;45.328;5.558;2024-01-15T04:51:54;4.70;99.90
7738;DHT22;29398;45.328;5.558;2024-01-15T04:52:55;4.70;99.90
7738;DHT22;29398;45.328;5.558;2024-01-15T04:53:57;4.70;99.90
7738;DHT22;29398;45.328;5.558;2024-01-15T04:54:58;4.70;99.90
7738;DHT22;29398;45.328;5.558;2024-01-15T04:55:59;4.70;99.90
7738;DHT22;29398;45.328;5.558;2024-01-15T04:57:01;4.70;99.90
7738;DHT22;29398;45.328;5.558;2024-01-15T04:58:04;4.70;99.90
7738;DHT22;29398;45.328;5.558;2024-01-15T04:59:06;4.70;99.90
7738;DHT22;29398;45.328;5.558;2024-01-15T05:00:08;4.70;99.90
7738;DHT22;29398;45.328;5.558;2024-01-15T05:01:10;4.70;99.90
7738;DHT22;29398;45.328;5.558;2024-01-15T05:02:11;4.70;99.90
7738;DHT22;29398;45.328;5.558;2024-01-15T05:03:13;4.80;99.90
7738;DHT22;29398;45.328;5.558;2024-01-15T05:04:15;4.70;99.90
7738;DHT22;29398;45.328;5.558;2024-01-15T05:05:16;4.80;99.90
7738;DHT22;29398;45.328;5.558;2024-01-15T05:06:18;4.80;99.90
7738;DHT22;29398;45.328;5.558;2024-01-15T05:07:19;4.80;99.90
7738;DHT22;29398;45.328;5.558;2024-01-15T05:08:20;4.80;99.90
7738;DHT22;29398;45.328;5.558;2024-01-15T05:09:22;4.80;99.90
7738;DHT22;29398;45.328;5.558;2024-01-15T05:10:24;4.80;99.90
7738;DHT22;29398;45.328;5.558;2024-01-15T05:11:26;4.80;99.90
7738;DHT22;29398;45.328;5.558;2024-01-15T05:12:27;4.80;99.90
7738;DHT22;29398;45.328;5.558;2024-01-15T05:13:31;4.90;99.90
7738;DHT22;29398;45.328;5.558;2024-01-15T05:14:32;4.90;99.90
7738;DHT22;29398;45.328;5.558;2024-01-15T05:15:34;4.90;99.90
7738;DHT22;29398;45.328;5.558;2024-01-15T05:16:35;4.90;99.90
7738;DHT22;29398;45.328;5.558;2024-01-15T05:17:39;4.90;99.90
7738;DHT22;29398;45.328;5.558;2024-01-15T05:18:40;4.90;99.90
7738;DHT22;29398;45.328;5.558;2024-01-15T05:19:44;4.90;99.90
7738;DHT22;29398;45.328;5.558;2024-01-15T05:20:45;4.90;99.90
7738;DHT22;29398;45.328;5.558;2024-01-15T05:21:47;4.80;99.90
7738;DHT22;29398;45.328;5.558;2024-01-15T05:22:48;4.90;99.90
7738;DHT22;29398;45.328;5.558;2024-01-15T05:23:50;4.90;99.90
7738;DHT22;29398;45.328;5.558;2024-01-15T05:24:51;4.90;99.90
7738;DHT22;29398;45.328;5.558;2024-01-15T05:25:52;4.90;99.90
7738;DHT22;29398;45.328;5.558;2024-01-15T05:26:54;4.90;99.90
7738;DHT22;29398;45.328;5.558;2024-01-15T05:27:56;4.80;99.90
7738;DHT22;29398;45.328;5.558;2024-01-15T05:28:59;4.80;99.90
7738;DHT22;29398;45.328;5.558;2024-01-15T05:30:00;4.80;99.90
7738;DHT22;29398;45.328;5.558;2024-01-15T05:31:01;4.80;99.90
7738;DHT22;29398;45.328;5.558;2024-01-15T05:32:05;4.80;99.90
7738;DHT22;29398;45.328;5.558;2024-01-15T05:33:06;4.80;99.90
7738;DHT22;29398;45.328;5.558;2024-01-15T05:34:08;4.70;99.90
7738;DHT22;29398;45.328;5.558;2024-01-15T05:35:10;4.70;99.90
7738;DHT22;29398;45.328;5.558;2024-01-15T05:36:12;4.70;99.90
7738;DHT22;29398;45.328;5.558;2024-01-15T05:37:13;4.70;99.90
7738;DHT22;29398;45.328;5.558;2024-01-15T05:38:15;4.70;99.90
7738;DHT22;29398;45.328;5.558;2024-01-15T05:39:16;4.70;99.90
7738;DHT22;29398;45.328;5.558;2024-01-15T05:40:18;4.80;99.90
7738;DHT22;29398;45.328;5.558;2024-01-15T05:41:19;4.80;99.90
7738;DHT22;29398;45.328;5.558;2024-01-15T05:42:22;4.70;99.90
7738;DHT22;29398;45.328;5.558;2024-01-15T05:43:23;4.80;99.90
7738;DHT22;29398;45.328;5.558;2024-01-15T05:44:26;4.80;99.90
7738;DHT22;29398;45.328;5.558;2024-01-15T05:45:29;4.80;99.90
7738;DHT22;29398;45.328;5.558;2024-01-15T05:46:31;4.80;99.90
7738;DHT22;29398;45.328;5.558;2024-01-15T05:47:33;4.80;99.90
7738;DHT22;29398;45.328;5.558;2024-01-15T05:48:35;4.80;99.90
7738;DHT22;29398;45.328;5.558;2024-01-15T05:49:36;4.80;99.90
7738;DHT22;29398;45.328;5.558;2024-01-15T05:50:38;4.80;99.90
7738;DHT22;29398;45.328;5.558;2024-01-15T05:51:39;4.70;99.90
7738;DHT22;29398;45.328;5.558;2024-01-15T05:52:41;4.80;99.90
7738;DHT22;29398;45.328;5.558;2024-01-15T05:53:42;4.70;99.90
7738;DHT22;29398;45.328;5.558;2024-01-15T05:54:45;4.80;99.90
7738;DHT22;29398;45.328;5.558;2024-01-15T05:55:46;4.70;99.90
7738;DHT22;29398;45.328;5.558;2024-01-15T05:56:48;4.70;99.90
7738;DHT22;29398;45.328;5.558;2024-01-15T05:57:49;4.80;99.90
7738;DHT22;29398;45.328;5.558;2024-01-15T05:58:50;4.70;99.90
7738;DHT22;29398;45.328;5.558;2024-01-15T05:59:54;4.70;99.90
7738;DHT22;29398;45.328;5.558;2024-01-15T06:00:55;4.70;99.90
7738;DHT22;29398;45.328;5.558;2024-01-15T06:01:57;4.70;99.90
7738;DHT22;29398;45.328;5.558;2024-01-15T06:02:58;4.70;99.90
7738;DHT22;29398;45.328;5.558;2024-01-15T06:04:00;4.70;99.90
7738;DHT22;29398;45.328;5.558;2024-01-15T06:05:01;4.70;99.90
7738;DHT22;29398;45.328;5.558;2024-01-15T06:06:04;4.70;99.90
7738;DHT22;29398;45.328;5.558;2024-01-15T06:07:05;4.70;99.90
7738;DHT22;29398;45.328;5.558;2024-01-15T06:08:07;4.70;99.90
7738;DHT22;29398;45.328;5.558;2024-01-15T06:09:08;4.70;99.90
7738;DHT22;29398;45.328;5.558;2024-01-15T06:10:10;4.70;99.90
7738;DHT22;29398;45.328;5.558;2024-01-15T06:11:12;4.70;99.90
7738;DHT22;29398;45.328;5.558;2024-01-15T06:12:14;4.70;99.90
7738;DHT22;29398;45.328;5.558;2024-01-15T06:13:15;4.70;99.90
7738;DHT22;29398;45.328;5.558;2024-01-15T06:14:17;4.70;99.90
7738;DHT22;29398;45.328;5.558;2024-01-15T06:15:19;4.70;99.90
7738;DHT22;29398;45.328;5.558;2024-01-15T06:16:22;4.70;99.90
7738;DHT22;29398;45.328;5.558;2024-01-15T06:17:24;4.60;99.90
7738;DHT22;29398;45.328;5.558;2024-01-15T06:18:26;4.60;99.90
7738;DHT22;29398;45.328;5.558;2024-01-15T06:19:27;4.60;99.90
7738;DHT22;29398;45.328;5.558;2024-01-15T06:20:29;4.60;99.90
7738;DHT22;29398;45.328;5.558;2024-01-15T06:21:30;4.60;99.90
7738;DHT22;29398;45.328;5.558;2024-01-15T06:22:32;4.60;99.90
7738;DHT22;29398;45.328;5.558;2024-01-15T06:23:34;4.60;99.90
7738;DHT22;29398;45.328;5.558;2024-01-15T06:24:35;4.50;99.90
7738;DHT22;29398;45.328;5.558;2024-01-15T06:25:37;4.60;99.90
7738;DHT22;29398;45.328;5.558;2024-01-15T06:26:38;4.50;99.90
7738;DHT22;29398;45.328;5.558;2024-01-15T06:27:39;4.50;99.90
7738;DHT22;29398;45.328;5.558;2024-01-15T06:28:41;4.60;99.90
7738;DHT22;29398;45.328;5.558;2024-01-15T06:29:45;4.50;99.90
7738;DHT22;29398;45.328;5.558;2024-01-15T06:30:49;4.10;99.90
7738;DHT22;29398;45.328;5.558;2024-01-15T06:31:51;4.50;99.90
7738;DHT22;29398;45.328;5.558;2024-01-15T06:32:53;4.50;99.90
7738;DHT22;29398;45.328;5.558;2024-01-15T06:33:54;4.50;99.90
7738;DHT22;29398;45.328;5.558;2024-01-15T06:34:56;4.50;99.90
7738;DHT22;29398;45.328;5.558;2024-01-15T06:35:58;4.60;99.90
7738;DHT22;29398;45.328;5.558;2024-01-15T06:36:59;4.50;99.90
7738;DHT22;29398;45.328;5.558;2024-01-15T06:38:01;4.50;99.90
7738;DHT22;29398;45.328;5.558;2024-01-15T06:39:02;4.50;99.90
7738;DHT22;29398;45.328;5.558;2024-01-15T06:40:05;4.50;99.90
7738;DHT22;29398;45.328;5.558;2024-01-15T06:41:07;4.50;99.90
7738;DHT22;29398;45.328;5.558;2024-01-15T06:42:09;4.60;99.90
7738;DHT22;29398;45.328;5.558;2024-01-15T06:43:10;4.60;99.90